Time;durP1;ratioP1;P1;durP2;ratioP2;P2;SDS_P1;SDS_P2;PMS_P1;PMS_P2;Temp;Humidity;BMP_temperature;BMP_pressure;BME280_temperature;BME280_humidity;BME280_pressure;Samples;Min_cycle;Max_cycle;Signal;HPM_P1;HPM_P2
2023/03/24 00:01:56;;;;;;;4.00;2.07;;;12.80;99.90;;;;;;5034626;28;20545;-74
2023/03/24 00:04:39;;;;;;;4.20;2.00;;;12.90;99.90;;;;;;5036191;28;20151;-74
2023/03/24 00:07:04;;;;;;;3.27;1.87;;;12.90;99.90;;;;;;5034799;28;20206;-75
2023/03/24 00:09:31;;;;;;;3.47;1.93;;;12.80;99.90;;;;;;5035855;28;20189;-73
2023/03/24 00:12:00;;;;;;;3.47;1.90;;;12.80;99.90;;;;;;5035197;28;20161;-74
2023/03/24 00:14:29;;;;;;;5.13;1.80;;;12.80;99.90;;;;;;5034851;28;20156;-73
2023/03/24 00:16:57;;;;;;;2.83;1.47;;;12.90;99.90;;;;;;5034503;28;20201;-73
2023/03/24 00:19:26;;;;;;;3.37;1.70;;;12.90;99.90;;;;;;5032887;28;20224;-73
2023/03/24 00:21:54;;;;;;;2.17;1.80;;;12.80;99.90;;;;;;5034532;28;20508;-74
2023/03/24 00:24:21;;;;;;;3.40;1.50;;;12.80;99.90;;;;;;5033413;28;20286;-73
2023/03/24 00:26:50;;;;;;;3.70;1.63;;;12.80;99.90;;;;;;5033052;28;20268;-74
2023/03/24 00:29:16;;;;;;;3.53;1.97;;;12.90;99.90;;;;;;5034589;28;20304;-74
2023/03/24 00:31:45;;;;;;;2.67;2.00;;;12.90;99.90;;;;;;5034502;28;20155;-74
2023/03/24 00:34:20;;;;;;;4.27;1.90;;;12.80;99.90;;;;;;5034522;28;20171;-74
2023/03/24 00:36:55;;;;;;;2.40;1.63;;;12.90;99.90;;;;;;5032981;28;20227;-74
2023/03/24 00:39:23;;;;;;;5.37;1.67;;;13.00;99.90;;;;;;5034220;28;20510;-74
2023/03/24 00:41:50;;;;;;;2.70;1.93;;;13.10;99.90;;;;;;5034531;28;20243;-74
2023/03/24 00:44:18;;;;;;;3.97;1.93;;;13.10;99.90;;;;;;5033011;28;20165;-74
2023/03/24 00:46:55;;;;;;;2.53;1.83;;;13.10;99.90;;;;;;5033990;28;20273;-74
2023/03/24 00:49:43;;;;;;;2.77;2.20;;;13.10;99.90;;;;;;5034187;28;20220;-74
2023/03/24 00:52:19;;;;;;;3.47;1.60;;;13.10;99.90;;;;;;5034041;28;20183;-74
2023/03/24 00:54:58;;;;;;;3.70;2.00;;;13.00;99.90;;;;;;5033773;28;20171;-74
2023/03/24 00:57:33;;;;;;;4.43;1.80;;;13.10;99.90;;;;;;5032947;28;20187;-76
2023/03/24 01:00:13;;;;;;;2.10;1.70;;;13.10;99.90;;;;;;5034103;28;20154;-74
2023/03/24 01:02:42;;;;;;;2.87;1.83;;;13.10;99.90;;;;;;5032651;28;20655;-74
2023/03/24 01:05:16;;;;;;;4.80;1.73;;;13.10;99.90;;;;;;5034060;28;20155;-74
2023/03/24 01:07:50;;;;;;;2.60;1.80;;;13.10;99.90;;;;;;5033956;28;20180;-74
2023/03/24 01:10:24;;;;;;;1.83;1.60;;;13.10;99.90;;;;;;5032338;28;20163;-74
2023/03/24 01:12:52;;;;;;;2.20;1.60;;;13.20;99.90;;;;;;5033856;28;20148;-74
2023/03/24 01:15:23;;;;;;;3.37;1.90;;;13.30;99.90;;;;;;5033464;28;20148;-74
2023/03/24 01:17:51;;;;;;;3.40;1.57;;;13.30;99.90;;;;;;5033569;28;20148;-75
2023/03/24 01:20:19;;;;;;;2.03;1.40;;;13.40;99.90;;;;;;5033383;28;20152;-76
2023/03/24 01:22:45;;;;;;;2.43;1.37;;;13.50;99.90;;;;;;5033390;28;20212;-74
2023/03/24 01:25:17;;;;;;;2.20;1.77;;;13.50;99.90;;;;;;5032392;28;20175;-75
2023/03/24 01:27:47;;;;;;;4.33;1.80;;;13.50;99.90;;;;;;5033026;28;20664;-76
2023/03/24 01:30:23;;;;;;;3.93;1.57;;;13.50;99.90;;;;;;5033167;28;20178;-76
2023/03/24 01:32:51;;;;;;;3.87;1.90;;;13.60;99.90;;;;;;5031378;28;20792;-74
2023/03/24 01:35:29;;;;;;;4.23;1.70;;;13.60;99.90;;;;;;5033379;28;20159;-75
2023/03/24 01:37:56;;;;;;;3.30;1.33;;;13.60;99.90;;;;;;5033078;28;20160;-74
2023/03/24 01:40:25;;;;;;;2.57;1.53;;;13.60;99.90;;;;;;5033349;28;20164;-74
2023/03/24 01:42:58;;;;;;;3.87;1.83;;;13.60;99.90;;;;;;5033672;28;20191;-75
2023/03/24 01:45:57;;;;;;;1.80;1.70;;;13.70;99.90;;;;;;5033559;28;20648;-75
2023/03/24 01:48:47;;;;;;;1.83;1.47;;;13.60;99.90;;;;;;5031797;28;20269;-75
2023/03/24 01:51:25;;;;;;;3.40;1.77;;;13.80;99.90;;;;;;5031654;28;20195;-75
2023/03/24 01:53:56;;;;;;;2.40;1.80;;;13.70;99.90;;;;;;5033084;28;20233;-76
2023/03/24 01:56:23;;;;;;;2.87;2.20;;;13.60;99.90;;;;;;5032915;28;20175;-75
2023/03/24 01:58:58;;;;;;;4.50;2.27;;;13.70;99.90;;;;;;5032018;28;20179;-75
2023/03/24 02:01:28;;;;;;;3.53;1.70;;;13.60;99.90;;;;;;5033099;28;20247;-76
2023/03/24 02:04:02;;;;;;;2.73;1.80;;;13.40;99.90;;;;;;5033268;28;20637;-75
2023/03/24 02:06:33;;;;;;;3.60;2.23;;;13.50;99.90;;;;;;5032728;28;20152;-74
2023/03/24 02:09:03;;;;;;;3.00;1.63;;;13.50;99.90;;;;;;5033552;28;20214;-75
2023/03/24 02:11:32;;;;;;;4.93;2.30;;;13.50;99.90;;;;;;5033332;28;20148;-75
2023/03/24 02:13:58;;;;;;;3.23;1.80;;;13.50;99.90;;;;;;5033216;28;20192;-76
2023/03/24 02:16:45;;;;;;;1.70;1.50;;;13.60;99.90;;;;;;5032084;28;20172;-74
2023/03/24 02:19:49;;;;;;;5.00;1.87;;;13.60;99.90;;;;;;5033022;28;20160;-75
2023/03/24 02:22:43;;;;;;;2.27;1.37;;;13.50;99.90;;;;;;5032839;28;20185;-75
2023/03/24 02:25:42;;;;;;;1.73;1.00;;;13.30;99.90;;;;;;5032815;28;20282;-74
2023/03/24 02:28:23;;;;;;;5.87;0.80;;;13.20;99.90;;;;;;5031767;28;20215;-75
2023/03/24 02:31:23;;;;;;;1.70;0.70;;;12.90;99.90;;;;;;5032978;28;20579;-75
2023/03/24 02:34:39;;;;;;;2.23;0.70;;;12.80;99.90;;;;;;4972071;28;20182;-74
2023/03/24 02:37:26;;;;;;;4.77;1.27;;;12.70;99.90;;;;;;4971784;28;20183;-75
2023/03/24 02:40:20;;;;;;;3.63;0.70;;;12.60;99.90;;;;;;4972044;28;20162;-75
2023/03/24 02:43:17;;;;;;;3.23;0.70;;;12.50;99.90;;;;;;4982188;28;20670;-76
2023/03/24 02:46:12;;;;;;;3.77;0.83;;;12.50;99.90;;;;;;5035740;28;20603;-75
2023/03/24 02:48:42;;;;;;;3.20;0.90;;;12.30;99.90;;;;;;5034777;28;20209;-74
2023/03/24 02:51:15;;;;;;;3.03;0.67;;;12.30;99.90;;;;;;5034858;28;20198;-75
2023/03/24 02:54:10;;;;;;;5.97;1.20;;;12.10;99.90;;;;;;5034845;28;20273;-75
2023/03/24 02:57:02;;;;;;;5.50;0.80;;;12.10;99.90;;;;;;5035287;28;20179;-75
2023/03/24 02:59:49;;;;;;;2.43;0.63;;;12.20;99.90;;;;;;5034958;28;20641;-75
2023/03/24 03:02:19;;;;;;;2.57;0.73;;;12.20;99.90;;;;;;5036411;28;20176;-75
2023/03/24 03:04:52;;;;;;;1.60;0.60;;;12.20;99.90;;;;;;5035881;28;20166;-75
2023/03/24 03:07:28;;;;;;;5.97;1.10;;;12.20;99.90;;;;;;5036298;28;20202;-76
2023/03/24 03:10:07;;;;;;;6.50;1.00;;;12.10;99.90;;;;;;5034956;28;20588;-75
2023/03/24 03:12:43;;;;;;;3.20;0.80;;;12.20;99.90;;;;;;5036315;28;20171;-75
2023/03/24 03:15:42;;;;;;;2.47;0.70;;;12.20;99.90;;;;;;5034766;28;20267;-79
2023/03/24 03:18:19;;;;;;;2.83;0.83;;;12.30;99.90;;;;;;5018240;28;20194;-74
2023/03/24 03:21:20;;;;;;;3.07;0.77;;;12.20;99.90;;;;;;5035356;28;20161;-75
2023/03/24 03:23:52;;;;;;;4.77;0.90;;;12.10;99.90;;;;;;5034485;28;20203;-74
2023/03/24 03:26:22;;;;;;;4.70;1.07;;;12.00;99.90;;;;;;5034336;28;20217;-75
2023/03/24 03:28:58;;;;;;;3.60;0.80;;;11.90;99.90;;;;;;5035580;28;20194;-75
2023/03/24 03:31:40;;;;;;;4.10;0.77;;;11.90;99.90;;;;;;5034484;28;20377;-74
2023/03/24 03:34:18;;;;;;;4.73;0.90;;;11.80;99.90;;;;;;5035484;28;20175;-75
2023/03/24 03:37:02;;;;;;;7.83;1.50;;;11.90;99.90;;;;;;5035481;28;20246;-74
2023/03/24 03:39:31;;;;;;;6.43;1.30;;;11.80;99.90;;;;;;5034191;28;20184;-73
2023/03/24 03:41:59;;;;;;;7.67;1.53;;;12.00;99.90;;;;;;5034100;28;20521;-75
2023/03/24 03:44:26;;;;;;;7.17;1.77;;;12.00;99.90;;;;;;5034035;28;20554;-75
2023/03/24 03:46:55;;;;;;;5.33;1.00;;;11.90;99.90;;;;;;5034067;28;20185;-74
2023/03/24 03:49:24;;;;;;;8.73;1.00;;;12.00;99.90;;;;;;5034145;28;20176;-74
2023/03/24 03:51:51;;;;;;;6.13;1.17;;;12.10;99.90;;;;;;5034109;28;20188;-75
2023/03/24 03:54:18;;;;;;;5.37;1.10;;;12.10;99.90;;;;;;5033178;28;20166;-74
2023/03/24 03:56:59;;;;;;;4.77;1.00;;;12.10;99.90;;;;;;5040270;28;20180;-74
2023/03/24 03:59:26;;;;;;;7.23;1.40;;;12.00;99.90;;;;;;5073993;28;20181;-74
2023/03/24 04:01:54;;;;;;;5.80;0.90;;;12.00;99.90;;;;;;5073982;28;20174;-74
2023/03/24 04:04:38;;;;;;;5.00;1.07;;;11.90;99.90;;;;;;5073634;28;20847;-75
2023/03/24 04:07:29;;;;;;;9.20;1.33;;;11.60;99.90;;;;;;5074914;28;20221;-74
2023/03/24 04:10:25;;;;;;;4.93;1.30;;;11.60;99.90;;;;;;5073769;28;20171;-74
2023/03/24 04:13:19;;;;;;;8.10;1.20;;;11.60;99.90;;;;;;5073750;28;20515;-75
2023/03/24 04:16:02;;;;;;;5.47;2.00;;;11.80;99.90;;;;;;5074578;28;20210;-74
2023/03/24 04:19:00;;;;;;;6.13;1.30;;;11.60;99.90;;;;;;5073317;28;20172;-74
2023/03/24 04:21:41;;;;;;;7.00;1.33;;;11.60;99.90;;;;;;5073267;28;20232;-74
2023/03/24 04:24:34;;;;;;;9.90;2.00;;;11.50;99.90;;;;;;5073483;28;20202;-74
2023/03/24 04:27:27;;;;;;;3.40;1.20;;;11.40;99.90;;;;;;5074625;28;20226;-74
2023/03/24 04:30:14;;;;;;;7.67;1.10;;;11.50;99.90;;;;;;5074497;28;20155;-75
2023/03/24 04:32:46;;;;;;;8.67;1.43;;;11.60;99.90;;;;;;5073104;28;20217;-74
2023/03/24 04:35:39;;;;;;;5.53;1.13;;;11.70;99.90;;;;;;5074358;28;20206;-76
2023/03/24 04:38:49;;;;;;;7.00;1.47;;;11.90;99.90;;;;;;5057062;28;20189;-75
2023/03/24 04:42:04;;;;;;;11.20;1.93;;;11.70;99.90;;;;;;5069468;28;20195;-76
2023/03/24 04:44:35;;;;;;;10.73;1.87;;;11.80;99.90;;;;;;5073503;28;20189;-76
2023/03/24 04:51:16;;;;;;;12.13;1.90;;;11.70;99.90;;;;;;5074212;28;20170;-77
2023/03/24 04:53:43;;;;;;;12.10;1.60;;;11.90;99.90;;;;;;5069107;28;20191;-75
2023/03/24 04:56:41;;;;;;;9.27;1.53;;;11.90;99.90;;;;;;5073852;28;20327;-75
2023/03/24 04:59:11;;;;;;;8.17;1.87;;;11.80;99.90;;;;;;5070346;28;20180;-75
2023/03/24 05:01:48;;;;;;;9.83;1.77;;;11.60;99.90;;;;;;5072638;28;20189;-75
2023/03/24 05:04:17;;;;;;;10.83;1.70;;;11.60;99.90;;;;;;5072932;28;20213;-75
2023/03/24 05:06:45;;;;;;;10.53;2.57;;;11.30;99.90;;;;;;5072252;28;20540;-75
2023/03/24 05:09:16;;;;;;;10.03;2.43;;;11.30;99.90;;;;;;5072704;28;20527;-75
2023/03/24 05:11:43;;;;;;;10.27;2.13;;;11.40;99.90;;;;;;5072560;28;20178;-75
2023/03/24 05:14:10;;;;;;;8.77;1.80;;;11.30;99.90;;;;;;5072416;28;20624;-75
2023/03/24 05:16:39;;;;;;;9.13;2.20;;;11.50;99.90;;;;;;5072106;28;20163;-75
2023/03/24 05:19:08;;;;;;;14.00;2.70;;;11.50;99.90;;;;;;5072274;28;20178;-75
2023/03/24 05:21:37;;;;;;;9.40;2.03;;;11.50;99.90;;;;;;5072452;28;20168;-76
2023/03/24 05:24:09;;;;;;;10.40;2.27;;;11.30;99.90;;;;;;5072350;28;20511;-75
2023/03/24 05:26:37;;;;;;;10.13;2.37;;;11.40;99.90;;;;;;5072362;28;20175;-74
2023/03/24 05:29:06;;;;;;;8.13;2.20;;;11.30;99.90;;;;;;5072314;28;20214;-76
2023/03/24 05:31:32;;;;;;;8.10;2.17;;;11.30;99.90;;;;;;5071999;28;20162;-75
2023/03/24 05:33:59;;;;;;;6.47;2.10;;;11.20;99.90;;;;;;5072259;28;20257;-75
2023/03/24 05:36:30;;;;;;;11.20;2.00;;;11.20;99.90;;;;;;5073549;28;20313;-74
2023/03/24 05:38:58;;;;;;;9.93;2.07;;;11.10;99.90;;;;;;5073294;28;20163;-75
2023/03/24 05:41:27;;;;;;;9.80;2.33;;;10.90;99.90;;;;;;5073238;28;20171;-75
2023/03/24 05:43:55;;;;;;;15.37;2.10;;;10.90;99.90;;;;;;5071856;28;20647;-74
2023/03/24 05:46:24;;;;;;;9.80;2.07;;;10.90;99.90;;;;;;5071695;28;20609;-75
2023/03/24 05:48:51;;;;;;;11.30;2.43;;;10.80;99.90;;;;;;5071991;28;20191;-74
2023/03/24 05:51:16;;;;;;;11.13;3.10;;;11.00;99.90;;;;;;5072844;28;20613;-74
2023/03/24 05:53:44;;;;;;;9.67;1.80;;;11.10;99.90;;;;;;5073569;28;20176;-74
2023/03/24 05:56:13;;;;;;;11.60;2.00;;;11.00;99.90;;;;;;5072429;28;20175;-74
2023/03/24 05:58:43;;;;;;;13.23;1.93;;;10.80;99.90;;;;;;5071976;28;20169;-75
2023/03/24 06:01:12;;;;;;;11.17;1.97;;;10.60;99.90;;;;;;5061205;28;20627;-74
2023/03/24 06:03:39;;;;;;;11.60;1.90;;;10.60;99.90;;;;;;5042632;28;20701;-74
2023/03/24 06:06:08;;;;;;;10.57;2.20;;;10.80;99.90;;;;;;5031892;28;20191;-74
2023/03/24 06:08:37;;;;;;;9.80;2.37;;;10.90;99.90;;;;;;5031845;28;20196;-76
2023/03/24 06:11:05;;;;;;;10.87;2.50;;;10.90;99.90;;;;;;5032780;28;20206;-75
2023/03/24 06:13:34;;;;;;;11.87;2.50;;;11.00;99.90;;;;;;5031884;28;20164;-76
2023/03/24 06:16:02;;;;;;;9.00;2.13;;;11.00;99.90;;;;;;5031700;28;20185;-75
2023/03/24 06:18:32;;;;;;;12.63;2.43;;;10.90;99.90;;;;;;5033602;28;20180;-75
2023/03/24 06:21:06;;;;;;;5.97;1.90;;;10.80;99.90;;;;;;5038099;28;20176;-76
2023/03/24 06:23:34;;;;;;;10.53;2.60;;;10.60;99.90;;;;;;5055973;28;20184;-75
2023/03/24 06:26:06;;;;;;;11.87;2.10;;;10.60;99.90;;;;;;5037359;28;20587;-75
2023/03/24 06:28:33;;;;;;;11.43;1.90;;;10.60;99.90;;;;;;5039221;28;20299;-75
2023/03/24 06:30:59;;;;;;;11.57;1.93;;;10.60;99.90;;;;;;5035667;28;20168;-75
2023/03/24 06:33:26;;;;;;;9.63;2.27;;;10.60;99.90;;;;;;5055071;28;20250;-75
2023/03/24 06:35:52;;;;;;;11.50;1.97;;;10.80;99.90;;;;;;5054941;28;20538;-74
2023/03/24 06:38:21;;;;;;;11.27;2.03;;;10.80;99.90;;;;;;5056192;28;20196;-76
2023/03/24 06:40:47;;;;;;;10.93;1.73;;;10.70;99.90;;;;;;5054974;28;20184;-77
2023/03/24 06:43:13;;;;;;;11.17;2.30;;;10.70;99.90;;;;;;5055754;28;20251;-77
2023/03/24 06:45:39;;;;;;;12.80;2.30;;;10.80;99.90;;;;;;5035963;28;20200;-75
2023/03/24 06:48:10;;;;;;;8.47;2.40;;;11.00;99.90;;;;;;5055935;28;20191;-75
2023/03/24 06:50:54;;;;;;;10.73;2.23;;;10.90;99.90;;;;;;5055419;28;20207;-75
2023/03/24 06:53:22;;;;;;;13.10;2.47;;;10.90;99.90;;;;;;5054817;28;20188;-74
2023/03/24 06:55:50;;;;;;;10.10;1.47;;;11.00;99.90;;;;;;5056311;28;20609;-74
2023/03/24 06:58:18;;;;;;;13.17;1.97;;;11.10;99.90;;;;;;5054756;28;20173;-76
2023/03/24 07:00:47;;;;;;;10.53;1.70;;;11.20;99.90;;;;;;5055005;28;20168;-74
2023/03/24 07:03:15;;;;;;;9.60;2.27;;;11.20;99.90;;;;;;5054511;28;20179;-74
2023/03/24 07:05:44;;;;;;;10.60;1.93;;;11.30;99.90;;;;;;5054909;28;20188;-73
2023/03/24 07:08:12;;;;;;;10.43;2.37;;;11.30;99.90;;;;;;5054514;28;20222;-74
2023/03/24 07:10:41;;;;;;;8.17;2.17;;;11.30;99.90;;;;;;5054860;28;20169;-73
2023/03/24 07:13:09;;;;;;;13.73;2.37;;;11.20;99.90;;;;;;5055349;28;20173;-72
2023/03/24 07:15:35;;;;;;;9.47;2.10;;;11.20;99.90;;;;;;5054484;28;20612;-72
2023/03/24 07:18:00;;;;;;;13.07;2.00;;;11.30;99.90;;;;;;5036442;28;20234;-73
2023/03/24 07:20:26;;;;;;;10.57;1.77;;;11.30;99.90;;;;;;5035855;28;20167;-73
2023/03/24 07:22:56;;;;;;;15.50;2.93;;;11.40;99.90;;;;;;5035762;28;20207;-73
2023/03/24 07:25:22;;;;;;;8.73;1.87;;;11.40;99.90;;;;;;5035402;28;20183;-72
2023/03/24 07:27:48;;;;;;;8.03;2.23;;;11.50;99.90;;;;;;5046679;28;20205;-72
2023/03/24 07:30:14;;;;;;;7.37;1.93;;;11.60;99.90;;;;;;5054342;28;20587;-72
2023/03/24 07:32:41;;;;;;;8.10;2.47;;;11.60;99.90;;;;;;5054763;28;20168;-72
2023/03/24 07:35:11;;;;;;;9.03;2.57;;;11.60;99.90;;;;;;5053417;28;20208;-72
2023/03/24 07:37:38;;;;;;;9.70;2.47;;;11.70;99.90;;;;;;5039495;28;20619;-71
2023/03/24 07:40:10;;;;;;;6.90;1.57;;;11.70;99.90;;;;;;5034887;28;20261;-73
2023/03/24 07:42:37;;;;;;;10.27;1.90;;;11.70;99.90;;;;;;5035069;28;20615;-72
2023/03/24 07:45:04;;;;;;;9.23;2.00;;;11.70;99.90;;;;;;5046485;28;20210;-72
2023/03/24 07:47:30;;;;;;;7.80;2.40;;;11.70;99.90;;;;;;5053681;28;20195;-72
2023/03/24 07:49:56;;;;;;;10.73;2.00;;;11.70;99.90;;;;;;5054854;28;20694;-71
2023/03/24 07:52:22;;;;;;;6.07;1.80;;;11.70;99.90;;;;;;5054511;28;20229;-71
2023/03/24 07:54:47;;;;;;;9.53;2.50;;;11.80;99.90;;;;;;5054650;28;20180;-71
2023/03/24 07:57:13;;;;;;;5.40;1.47;;;11.90;99.90;;;;;;5054409;28;20175;-71
2023/03/24 07:59:39;;;;;;;10.00;2.27;;;12.10;99.90;;;;;;5053597;28;20176;-71
2023/03/24 08:02:08;;;;;;;6.43;1.60;;;12.10;99.90;;;;;;5053357;28;20262;-71
2023/03/24 08:04:34;;;;;;;7.67;1.97;;;11.90;99.90;;;;;;5053704;28;20181;-71
2023/03/24 08:06:59;;;;;;;8.70;2.20;;;11.90;99.90;;;;;;5047307;28;20245;-72
2023/03/24 08:09:25;;;;;;;9.80;2.77;;;11.90;99.90;;;;;;5062913;28;20161;-71
2023/03/24 08:11:51;;;;;;;10.47;1.60;;;12.00;99.90;;;;;;5063236;28;20177;-71
2023/03/24 08:14:17;;;;;;;7.80;1.80;;;11.90;99.90;;;;;;5057725;28;20203;-73
2023/03/24 08:16:45;;;;;;;8.77;2.33;;;11.70;99.90;;;;;;5057985;28;20173;-71
2023/03/24 08:19:10;;;;;;;7.80;1.73;;;11.80;99.90;;;;;;5065287;28;20584;-72
2023/03/24 08:21:37;;;;;;;6.83;2.47;;;11.80;99.90;;;;;;5061471;28;20174;-72
2023/03/24 08:24:03;;;;;;;6.27;1.30;;;12.00;99.90;;;;;;5059975;28;20541;-72
2023/03/24 08:26:29;;;;;;;9.43;2.53;;;12.10;99.90;;;;;;5060473;28;20171;-71
2023/03/24 08:28:55;;;;;;;11.07;1.87;;;12.10;99.90;;;;;;5064200;28;20281;-71
2023/03/24 08:31:22;;;;;;;8.77;1.60;;;12.10;99.90;;;;;;5058678;28;20341;-71
2023/03/24 08:33:47;;;;;;;8.53;2.13;;;12.30;99.90;;;;;;5066351;28;20177;-71
2023/03/24 08:36:13;;;;;;;7.67;1.90;;;12.40;99.90;;;;;;5059580;28;20167;-71
2023/03/24 08:38:39;;;;;;;17.20;2.37;;;12.60;99.90;;;;;;5059158;28;20298;-71
2023/03/24 08:41:05;;;;;;;8.03;1.70;;;12.70;99.90;;;;;;5066810;28;20174;-71
2023/03/24 08:43:33;;;;;;;9.87;2.20;;;12.60;99.90;;;;;;5067403;28;20175;-71
2023/03/24 08:46:01;;;;;;;6.53;1.57;;;12.60;99.90;;;;;;5062362;28;20254;-71
2023/03/24 08:48:29;;;;;;;13.53;2.10;;;12.50;99.90;;;;;;5062595;28;20696;-71
2023/03/24 08:50:55;;;;;;;9.87;1.90;;;12.40;99.90;;;;;;5051934;28;20639;-71
2023/03/24 08:53:21;;;;;;;6.43;1.60;;;12.40;99.90;;;;;;5066303;28;20187;-71
2023/03/24 08:55:46;;;;;;;9.77;1.97;;;12.50;99.90;;;;;;5056104;28;20163;-71
2023/03/24 08:58:15;;;;;;;7.17;2.23;;;12.60;99.90;;;;;;5063896;28;20168;-71
2023/03/24 09:00:42;;;;;;;10.63;2.00;;;12.60;99.90;;;;;;5062655;28;20203;-71
2023/03/24 09:03:12;;;;;;;10.63;2.20;;;12.70;99.90;;;;;;5057655;28;20179;-71
2023/03/24 09:05:38;;;;;;;9.43;3.03;;;12.70;99.90;;;;;;5053503;28;20164;-72
2023/03/24 09:08:03;;;;;;;6.93;1.87;;;12.90;99.90;;;;;;5063800;28;20244;-72
2023/03/24 09:10:29;;;;;;;9.43;2.40;;;13.10;99.90;;;;;;5060949;28;20167;-72
2023/03/24 09:12:57;;;;;;;14.47;2.60;;;13.10;99.90;;;;;;5070406;28;20189;-72
2023/03/24 09:15:22;;;;;;;11.20;2.50;;;13.10;99.90;;;;;;5059344;28;20172;-72
2023/03/24 09:17:48;;;;;;;9.17;2.17;;;13.20;99.90;;;;;;5051547;28;20187;-72
2023/03/24 09:20:14;;;;;;;11.57;2.63;;;13.40;99.90;;;;;;5052204;28;20175;-72
2023/03/24 09:22:42;;;;;;;8.73;1.90;;;13.30;99.90;;;;;;5051638;28;20167;-71
2023/03/24 09:25:11;;;;;;;8.33;1.83;;;13.40;99.90;;;;;;5053130;28;20522;-73
2023/03/24 09:27:36;;;;;;;6.13;2.10;;;13.50;99.90;;;;;;5053053;28;20742;-72
2023/03/24 09:30:03;;;;;;;12.30;2.33;;;13.50;99.90;;;;;;5071814;28;20182;-72
2023/03/24 09:32:29;;;;;;;10.40;2.30;;;13.60;99.90;;;;;;5073239;28;20611;-71
2023/03/24 09:34:55;;;;;;;8.47;2.20;;;13.70;99.90;;;;;;5073571;28;20164;-72
2023/03/24 09:37:22;;;;;;;7.80;2.20;;;13.70;99.90;;;;;;5064792;28;20213;-71
2023/03/24 09:39:48;;;;;;;10.57;2.03;;;13.80;99.90;;;;;;5053111;28;20164;-71
2023/03/24 09:42:29;;;;;;;6.20;1.43;;;13.80;99.90;;;;;;5053509;28;20278;-71
2023/03/24 09:44:57;;;;;;;12.93;1.90;;;13.90;99.90;;;;;;5053155;28;20264;-72
2023/03/24 09:47:40;;;;;;;6.33;1.60;;;13.90;99.90;;;;;;5052924;28;20531;-71
2023/03/24 09:50:19;;;;;;;11.73;1.50;;;13.70;99.90;;;;;;5051352;28;20566;-71
2023/03/24 09:52:52;;;;;;;8.17;1.43;;;13.60;99.90;;;;;;5050451;28;20190;-71
2023/03/24 09:55:24;;;;;;;10.63;1.90;;;13.60;99.90;;;;;;5052242;28;20157;-72
2023/03/24 09:57:51;;;;;;;7.60;1.77;;;13.70;99.90;;;;;;5052896;28;20511;-73
2023/03/24 10:00:30;;;;;;;5.27;1.50;;;13.30;99.90;;;;;;5052703;28;20174;-72
2023/03/24 10:03:20;;;;;;;10.13;1.77;;;13.30;99.90;;;;;;5051589;28;20629;-72
2023/03/24 10:06:14;;;;;;;7.30;1.83;;;13.70;99.90;;;;;;5051014;28;20174;-72
2023/03/24 10:08:46;;;;;;;12.53;2.03;;;13.90;99.90;;;;;;5050611;28;20210;-72
2023/03/24 10:11:45;;;;;;;9.90;1.70;;;14.10;99.90;;;;;;5050930;28;20171;-72
2023/03/24 10:14:29;;;;;;;8.27;1.83;;;14.20;99.90;;;;;;5051278;28;20195;-72
2023/03/24 10:17:04;;;;;;;9.87;1.50;;;14.20;99.90;;;;;;5051135;28;20205;-71
2023/03/24 10:19:54;;;;;;;11.00;2.53;;;14.30;99.90;;;;;;5051953;28;20146;-73
2023/03/24 10:22:31;;;;;;;8.27;1.40;;;14.40;99.90;;;;;;5051097;28;20186;-71
2023/03/24 10:25:23;;;;;;;9.97;1.93;;;14.40;99.90;;;;;;5052624;28;20186;-72
2023/03/24 10:28:01;;;;;;;9.93;1.87;;;14.20;99.90;;;;;;5053851;28;20192;-72
2023/03/24 10:30:31;;;;;;;9.77;1.77;;;14.30;99.90;;;;;;5052788;28;20175;-72
2023/03/24 10:32:57;;;;;;;8.30;1.67;;;14.40;99.90;;;;;;5052510;28;20515;-72
2023/03/24 10:35:59;;;;;;;7.50;1.60;;;14.50;99.90;;;;;;5051509;28;20247;-72
2023/03/24 10:38:24;;;;;;;8.93;1.80;;;14.40;99.90;;;;;;5052069;28;20184;-73
2023/03/24 10:40:53;;;;;;;9.20;1.50;;;14.40;99.90;;;;;;5050378;28;20262;-75
2023/03/24 10:43:19;;;;;;;6.63;1.77;;;14.40;99.90;;;;;;5051613;28;20533;-71
2023/03/24 10:45:56;;;;;;;5.97;1.40;;;14.50;99.90;;;;;;5052074;28;20152;-71
2023/03/24 10:48:44;;;;;;;7.20;1.73;;;14.50;99.90;;;;;;5051151;28;20559;-72
2023/03/24 10:51:31;;;;;;;5.90;1.53;;;14.30;99.90;;;;;;5052712;28;20618;-72
2023/03/24 10:54:19;;;;;;;9.53;1.43;;;14.20;99.90;;;;;;5050866;28;20190;-72
2023/03/24 10:56:49;;;;;;;9.30;1.70;;;14.20;99.90;;;;;;5050479;28;20167;-72
2023/03/24 10:59:24;;;;;;;4.00;1.67;;;14.30;99.90;;;;;;5050570;28;20265;-72
2023/03/24 11:01:57;;;;;;;8.07;1.70;;;14.40;99.90;;;;;;5050630;28;20286;-72
2023/03/24 11:04:25;;;;;;;8.87;1.83;;;15.00;99.90;;;;;;5053373;28;20148;-72
2023/03/24 11:07:17;;;;;;;8.80;2.07;;;15.30;99.90;;;;;;5055352;28;20235;-72
2023/03/24 11:09:45;;;;;;;8.67;1.40;;;14.80;99.90;;;;;;5050681;28;20213;-72
2023/03/24 11:12:43;;;;;;;7.90;1.67;;;14.80;99.90;;;;;;5054010;28;20167;-72
2023/03/24 11:15:21;;;;;;;5.27;1.40;;;14.70;99.90;;;;;;5018799;28;20181;-72
2023/03/24 11:17:57;;;;;;;8.20;2.00;;;14.60;99.90;;;;;;5055255;28;20159;-72
2023/03/24 11:20:36;;;;;;;10.80;2.33;;;14.60;99.90;;;;;;5055041;28;20175;-71
2023/03/24 11:23:25;;;;;;;8.73;1.87;;;14.80;99.90;;;;;;5053873;28;20164;-71
2023/03/24 11:26:12;;;;;;;5.17;1.27;;;14.80;99.90;;;;;;5054748;28;20175;-71
2023/03/24 11:28:49;;;;;;;6.40;1.30;;;15.10;99.90;;;;;;5054923;28;20605;-72
2023/03/24 11:31:23;;;;;;;6.67;1.93;;;15.40;99.90;;;;;;5054853;28;20235;-71
2023/03/24 11:34:02;;;;;;;6.30;1.50;;;16.10;99.90;;;;;;5054790;28;20164;-71
2023/03/24 11:36:31;;;;;;;10.90;1.70;;;16.00;99.90;;;;;;5055235;28;20172;-72
2023/03/24 11:39:12;;;;;;;5.33;1.53;;;15.50;99.90;;;;;;5053506;28;20172;-73
2023/03/24 11:41:42;;;;;;;9.03;1.53;;;15.90;99.90;;;;;;5054490;28;20184;-73
2023/03/24 11:44:22;;;;;;;7.47;1.57;;;15.90;99.90;;;;;;5054716;28;20570;-73
2023/03/24 11:47:03;;;;;;;8.17;1.60;;;15.70;99.90;;;;;;5052865;28;20579;-72
2023/03/24 11:49:36;;;;;;;13.20;1.70;;;16.10;99.90;;;;;;5054375;28;20625;-72
2023/03/24 11:52:03;;;;;;;8.47;2.13;;;16.60;99.90;;;;;;5053215;28;20272;-72
2023/03/24 11:54:34;;;;;;;11.43;2.20;;;17.00;99.90;;;;;;5054627;28;20162;-71
2023/03/24 11:57:09;;;;;;;6.37;1.47;;;17.10;99.90;;;;;;5054266;28;20155;-71
2023/03/24 11:59:45;;;;;;;7.60;1.60;;;16.90;99.90;;;;;;5054436;28;20177;-71
2023/03/24 12:02:18;;;;;;;7.07;1.57;;;17.30;99.90;;;;;;5054047;28;20536;-73
2023/03/24 12:05:16;;;;;;;8.30;1.77;;;17.10;99.90;;;;;;5054421;28;20162;-72
2023/03/24 12:08:20;;;;;;;7.33;1.50;;;17.40;99.90;;;;;;5054184;28;20594;-72
2023/03/24 12:10:59;;;;;;;11.93;1.70;;;16.90;99.90;;;;;;5048204;28;20189;-73
2023/03/24 12:13:54;;;;;;;8.93;2.00;;;16.80;99.90;;;;;;5052748;28;20746;-72
2023/03/24 12:16:27;;;;;;;8.47;1.37;;;16.60;99.90;;;;;;5050665;28;20252;-72
2023/03/24 12:19:08;;;;;;;10.70;1.57;;;16.60;99.90;;;;;;5052779;28;20538;-72
2023/03/24 12:22:04;;;;;;;10.00;1.33;;;16.30;99.90;;;;;;5053866;28;20163;-72
2023/03/24 12:24:50;;;;;;;10.20;2.20;;;15.90;99.90;;;;;;5051644;28;20213;-71
2023/03/24 12:27:36;;;;;;;6.80;1.53;;;15.10;99.90;;;;;;5052537;28;20624;-70
2023/03/24 12:30:10;;;;;;;6.93;1.47;;;14.90;99.90;;;;;;5052531;28;20270;-72
2023/03/24 12:33:23;;;;;;;8.67;1.80;;;15.00;99.90;;;;;;5052721;28;20191;-71
2023/03/24 12:35:54;;;;;;;6.63;1.63;;;14.90;99.90;;;;;;5021950;28;20229;-70
2023/03/24 12:38:44;;;;;;;8.17;2.07;;;14.70;99.90;;;;;;5053428;28;20175;-71
2023/03/24 12:41:38;;;;;;;9.73;1.73;;;14.70;99.90;;;;;;5053651;28;20617;-71
2023/03/24 12:44:44;;;;;;;8.10;2.43;;;14.60;99.90;;;;;;5052187;28;20190;-71
2023/03/24 12:47:37;;;;;;;9.73;1.87;;;14.70;99.90;;;;;;5037020;28;20208;-71
2023/03/24 12:50:33;;;;;;;9.57;1.80;;;14.60;99.90;;;;;;5053388;28;20513;-71
2023/03/24 12:53:23;;;;;;;5.83;1.70;;;14.60;99.90;;;;;;5053166;28;20180;-73
2023/03/24 12:56:14;;;;;;;6.37;1.73;;;14.50;99.90;;;;;;5053226;28;20641;-71
2023/03/24 12:58:55;;;;;;;7.57;1.50;;;14.30;99.90;;;;;;5053376;28;20536;-72
2023/03/24 13:01:34;;;;;;;5.50;1.40;;;14.30;99.90;;;;;;5053182;28;20502;-70
2023/03/24 13:04:00;;;;;;;7.23;1.63;;;14.30;99.90;;;;;;5053025;28;20156;-71
2023/03/24 13:06:32;;;;;;;5.47;1.17;;;14.20;99.90;;;;;;5052932;28;20171;-71
2023/03/24 13:09:24;;;;;;;23.23;1.83;;;14.00;99.90;;;;;;5053042;28;20188;-72
2023/03/24 13:12:12;;;;;;;6.90;0.80;;;13.40;99.90;;;;;;5024202;28;20180;-72
2023/03/24 13:15:00;;;;;;;5.97;1.03;;;12.90;99.90;;;;;;5052649;28;20568;-72
2023/03/24 13:17:35;;;;;;;3.60;1.03;;;12.60;99.90;;;;;;5052983;28;20643;-71
2023/03/24 13:20:05;;;;;;;4.70;1.00;;;12.50;99.90;;;;;;5052801;28;20155;-71
2023/03/24 13:22:33;;;;;;;5.13;1.20;;;12.60;99.90;;;;;;5051678;28;20182;-72
2023/03/24 13:25:00;;;;;;;4.67;0.90;;;13.40;99.90;;;;;;5052731;28;20172;-72
2023/03/24 13:27:34;;;;;;;4.10;0.70;;;14.20;99.90;;;;;;5051632;28;20593;-72
2023/03/24 13:30:25;;;;;;;3.60;0.93;;;15.00;99.90;;;;;;5052755;28;20493;-70